Time;durP1;ratioP1;P1;durP2;ratioP2;P2;SDS_P1;SDS_P2;PMS_P1;PMS_P2;Temp;Humidity;BMP_temperature;BMP_pressure;BME280_temperature;BME280_humidity;BME280_pressure;Samples;Min_cycle;Max_cycle;Signal;HPM_P1;HPM_P2
2023/12/06 00:00:17;;;;;;;17.70;10.30;;;;;;;-2.18;87.26;96344.80;108706;1265;25604;-79
2023/12/06 00:03:07;;;;;;;16.90;10.10;;;;;;;-2.17;87.27;96343.91;108772;1268;25277;-79
2023/12/06 00:05:36;;;;;;;16.90;10.50;;;;;;;-2.17;87.37;96343.24;108797;1273;22517;-79
2023/12/06 00:08:06;;;;;;;18.50;11.50;;;;;;;-2.18;87.20;96341.77;108712;1273;24241;-79
2023/12/06 00:10:34;;;;;;;17.10;9.70;;;;;;;-2.19;86.98;96343.38;108763;1266;22529;-79
2023/12/06 00:13:05;;;;;;;15.50;9.70;;;;;;;-2.20;87.14;96341.02;108760;1273;22530;-79
2023/12/06 00:15:34;;;;;;;18.90;10.60;;;;;;;-2.20;87.12;96340.22;108789;1273;24324;-79
2023/12/06 00:18:05;;;;;;;18.10;10.30;;;;;;;-2.21;86.96;96340.86;108743;1270;22543;-79
2023/12/06 00:20:33;;;;;;;20.40;11.80;;;;;;;-2.23;86.95;96341.46;108742;1273;22517;-79
2023/12/06 00:23:05;;;;;;;12.80;8.50;;;;;;;-2.23;86.91;96341.27;108762;1267;22516;-79
2023/12/06 00:25:33;;;;;;;17.30;10.30;;;;;;;-2.24;86.97;96343.98;108797;1273;22580;-79
2023/12/06 00:28:01;;;;;;;17.00;9.90;;;;;;;-2.23;86.82;96343.02;108770;1273;23138;-79
2023/12/06 00:30:32;;;;;;;15.10;8.90;;;;;;;-2.25;86.75;96340.90;108802;1273;22525;-79
2023/12/06 00:33:00;;;;;;;17.60;9.80;;;;;;;-2.25;86.85;96338.66;108758;1270;24347;-79
2023/12/06 00:35:30;;;;;;;17.60;10.10;;;;;;;-2.23;86.99;96334.04;108813;1273;25428;-79
2023/12/06 00:38:00;;;;;;;15.40;8.60;;;;;;;-2.22;86.99;96334.64;108744;1273;22511;-79
2023/12/06 00:40:28;;;;;;;16.70;9.60;;;;;;;-2.22;87.06;96334.48;108764;1266;22633;-79
2023/12/06 00:42:59;;;;;;;13.10;8.60;;;;;;;-2.19;87.20;96338.06;108760;1273;22536;-79
2023/12/06 00:45:30;;;;;;;16.40;8.60;;;;;;;-2.18;86.97;96335.41;108813;1269;25241;-79
2023/12/06 00:48:00;;;;;;;13.80;7.50;;;;;;;-2.18;86.88;96331.34;108796;1273;25990;-78
2023/12/06 00:50:31;;;;;;;17.30;9.10;;;;;;;-2.18;86.87;96331.50;108791;1273;22514;-79
2023/12/06 00:53:04;;;;;;;12.10;5.80;;;;;;;-2.21;86.94;96335.43;108795;1256;22796;-79
2023/12/06 00:55:35;;;;;;;12.90;7.10;;;;;;;-2.24;86.62;96331.13;108759;1273;26929;-79
2023/12/06 00:58:03;;;;;;;15.50;8.50;;;;;;;-2.28;86.55;96324.05;108747;1272;24268;-79
2023/12/06 01:00:34;;;;;;;17.60;10.90;;;;;;;-2.35;86.51;96321.17;108764;1273;25756;-79
2023/12/06 01:03:05;;;;;;;18.10;10.30;;;;;;;-2.38;86.61;96323.30;108788;1273;22518;-79
2023/12/06 01:05:33;;;;;;;13.40;7.90;;;;;;;-2.38;86.65;96331.96;108782;1266;25427;-79
2023/12/06 01:08:04;;;;;;;17.50;9.30;;;;;;;-2.41;86.69;96334.10;108759;1273;23765;-79
2023/12/06 01:10:32;;;;;;;18.60;10.50;;;;;;;-2.43;86.60;96332.35;108824;1273;24241;-79
2023/12/06 01:13:03;;;;;;;17.50;10.10;;;;;;;-2.47;86.53;96335.65;108780;1273;22561;-79
2023/12/06 01:15:32;;;;;;;18.40;11.50;;;;;;;-2.52;86.15;96335.45;108785;1266;25434;-79
2023/12/06 01:18:00;;;;;;;16.50;10.30;;;;;;;-2.57;86.74;96333.50;108740;1267;25221;-79
2023/12/06 01:20:31;;;;;;;17.20;10.30;;;;;;;-2.58;86.79;96337.65;108788;1273;24363;-79
2023/12/06 01:23:01;;;;;;;18.30;10.20;;;;;;;-2.57;86.84;96336.69;108760;1273;23494;-79
2023/12/06 01:25:30;;;;;;;20.10;10.90;;;;;;;-2.56;86.96;96339.28;108770;1256;23407;-79
2023/12/06 01:28:01;;;;;;;23.40;12.90;;;;;;;-2.55;87.20;96335.49;108751;1269;23273;-79
2023/12/06 01:30:32;;;;;;;19.40;10.60;;;;;;;-2.53;87.44;96338.30;108788;1270;22528;-79
2023/12/06 01:33:01;;;;;;;20.10;11.10;;;;;;;-2.54;87.39;96342.15;108755;1266;24206;-79
2023/12/06 01:35:30;;;;;;;19.40;11.30;;;;;;;-2.55;87.23;96344.46;108812;1266;22531;-79
2023/12/06 01:37:59;;;;;;;17.80;11.30;;;;;;;-2.56;87.28;96344.27;108725;1273;22565;-79
2023/12/06 01:40:30;;;;;;;19.70;11.30;;;;;;;-2.57;87.15;96342.84;108783;1273;25309;-79
2023/12/06 01:43:02;;;;;;;22.20;13.50;;;;;;;-2.57;87.55;96342.68;108742;1273;22561;-79
2023/12/06 01:45:30;;;;;;;15.50;10.10;;;;;;;-2.58;87.44;96344.55;108752;1266;23105;-79
2023/12/06 01:47:59;;;;;;;25.60;15.70;;;;;;;-2.66;87.04;96346.86;108800;1273;25234;-78
2023/12/06 01:50:27;;;;;;;24.40;15.00;;;;;;;-2.73;86.84;96348.14;108773;1266;22573;-78
2023/12/06 01:53:00;;;;;;;22.50;14.50;;;;;;;-2.76;86.90;96347.18;108790;1273;22546;-79
2023/12/06 01:55:29;;;;;;;22.80;14.10;;;;;;;-2.83;86.84;96344.47;108783;1273;22539;-78
2023/12/06 01:58:00;;;;;;;26.20;14.80;;;;;;;-2.89;86.88;96341.08;108689;1273;22305;-78
2023/12/06 02:00:28;;;;;;;24.20;13.60;;;;;;;-2.88;87.03;96343.91;108739;1273;22535;-79
2023/12/06 02:03:00;;;;;;;23.00;13.90;;;;;;;-2.88;87.17;96344.35;108788;1267;23960;-79
2023/12/06 02:05:28;;;;;;;24.50;14.80;;;;;;;-2.88;87.19;96341.28;108778;1273;25424;-78
2023/12/06 02:07:59;;;;;;;23.10;13.40;;;;;;;-2.89;87.05;96338.92;108744;1273;25489;-78
2023/12/06 02:10:27;;;;;;;22.10;11.90;;;;;;;-2.90;87.07;96338.05;108781;1273;25434;-78
2023/12/06 02:12:57;;;;;;;23.80;13.00;;;;;;;-2.90;87.36;96334.73;108798;1267;24999;-78
2023/12/06 02:15:25;;;;;;;20.90;12.80;;;;;;;-2.89;87.28;96334.98;108781;1273;22519;-79
2023/12/06 02:17:55;;;;;;;19.90;12.10;;;;;;;-2.90;87.31;96337.33;108749;1273;25288;-79
2023/12/06 02:20:23;;;;;;;;;;;;;;;-2.93;87.36;96337.58;108848;1267;22509;-78
2023/12/06 02:22:56;;;;;;;16.80;8.50;;;;;;;-2.97;87.07;96335.33;108811;1266;22524;-79
2023/12/06 02:25:24;;;;;;;19.80;11.40;;;;;;;-3.01;87.13;96334.14;108797;1261;22521;-78
2023/12/06 02:27:52;;;;;;;19.00;11.20;;;;;;;-3.07;87.24;96331.48;108811;1269;25804;-78
2023/12/06 02:30:24;;;;;;;19.00;11.10;;;;;;;-3.10;87.34;96333.89;108744;1273;26586;-78
2023/12/06 02:32:54;;;;;;;18.80;11.50;;;;;;;-3.07;87.62;96337.02;108757;1273;23739;-78
2023/12/06 02:35:31;;;;;;;20.80;12.40;;;;;;;-3.04;87.57;96335.49;108758;1269;23841;-79
2023/12/06 02:38:01;;;;;;;18.20;11.20;;;;;;;-3.03;87.54;96337.33;108797;1266;22537;-78
2023/12/06 02:40:32;;;;;;;19.20;11.20;;;;;;;-3.05;87.51;96339.60;108729;1270;25847;-78
2023/12/06 02:43:01;;;;;;;16.70;10.70;;;;;;;-3.07;87.67;96335.78;108787;1270;25413;-78
2023/12/06 02:45:29;;;;;;;;;;;;;;;-3.09;87.55;96331.38;108800;1266;22502;-78
2023/12/06 02:47:57;;;;;;;15.50;9.30;;;;;;;-3.12;87.84;96332.48;108753;1267;23754;-78
2023/12/06 02:50:25;;;;;;;18.30;10.60;;;;;;;-3.14;87.88;96327.66;108755;1273;22531;-79
2023/12/06 02:52:53;;;;;;;15.50;10.30;;;;;;;-3.14;87.82;96329.66;108717;1273;22528;-79
2023/12/06 02:55:22;;;;;;;15.00;10.00;;;;;;;-3.15;87.88;96334.21;108829;1273;23741;-79
2023/12/06 02:57:50;;;;;;;12.00;7.30;;;;;;;-3.18;87.79;96337.69;108760;1266;24911;-79
2023/12/06 03:00:20;;;;;;;19.90;11.90;;;;;;;-3.18;88.10;96340.80;108735;1253;24957;-79
2023/12/06 03:02:48;;;;;;;;;;;;;;;-3.16;88.14;96339.56;108817;1273;22522;-78
2023/12/06 03:05:22;;;;;;;17.10;10.20;;;;;;;-3.14;88.15;96340.35;108798;1273;23422;-79
2023/12/06 03:07:51;;;;;;;18.90;10.90;;;;;;;-3.12;88.22;96336.44;108751;1273;26437;-79
2023/12/06 03:10:20;;;;;;;17.90;10.50;;;;;;;-3.11;88.37;96340.02;108649;1269;171137;-79
2023/12/06 03:12:48;;;;;;;19.80;11.20;;;;;;;-3.09;88.35;96340.69;108769;1266;27580;-79
2023/12/06 03:15:19;;;;;;;17.60;11.00;;;;;;;-3.07;88.26;96335.02;108806;1273;22517;-79
2023/12/06 03:17:47;;;;;;;16.80;9.90;;;;;;;-3.03;88.40;96334.18;108788;1267;25291;-79
2023/12/06 03:20:16;;;;;;;16.90;9.70;;;;;;;-3.01;88.23;96335.17;108731;1273;22572;-79
2023/12/06 03:22:44;;;;;;;19.40;11.70;;;;;;;-3.01;88.06;96338.80;108814;1272;22757;-79
2023/12/06 03:25:13;;;;;;;19.80;11.30;;;;;;;-3.03;88.14;96335.89;108787;1265;22518;-79
2023/12/06 03:27:45;;;;;;;17.00;10.70;;;;;;;-3.06;88.09;96335.61;108816;1266;22540;-79
2023/12/06 03:30:14;;;;;;;19.30;11.80;;;;;;;-3.05;88.17;96333.59;108741;1273;25535;-79
2023/12/06 03:32:43;;;;;;;17.50;10.00;;;;;;;-3.02;88.39;96331.42;108818;1273;22606;-79
2023/12/06 03:35:14;;;;;;;18.90;10.20;;;;;;;-2.99;88.33;96328.63;108801;1273;25300;-79
2023/12/06 03:37:42;;;;;;;16.80;10.70;;;;;;;-2.95;88.35;96324.05;108796;1274;22570;-79
2023/12/06 03:40:13;;;;;;;21.60;11.90;;;;;;;-2.93;88.35;96326.45;108772;1273;22520;-79
2023/12/06 03:42:42;;;;;;;20.00;11.50;;;;;;;-2.98;88.30;96332.17;108765;1273;26905;-79
2023/12/06 03:45:12;;;;;;;19.30;11.10;;;;;;;-3.01;88.30;96334.93;108805;1272;22533;-79
2023/12/06 03:47:41;;;;;;;19.80;11.80;;;;;;;-3.02;88.20;96337.33;108827;1270;24463;-79
2023/12/06 03:50:09;;;;;;;18.70;12.30;;;;;;;-2.99;88.50;96338.52;108772;1266;22510;-79
2023/12/06 03:52:37;;;;;;;;;;;;;;;-2.96;88.35;96336.45;108793;1273;24385;-79
2023/12/06 03:55:07;;;;;;;20.00;11.20;;;;;;;-2.95;88.48;96333.39;108758;1273;22573;-79
2023/12/06 03:57:35;;;;;;;19.90;12.10;;;;;;;-2.96;88.30;96329.51;108747;1273;22517;-79
2023/12/06 04:00:07;;;;;;;20.70;12.50;;;;;;;-2.98;88.45;96329.70;108755;1268;22535;-79
2023/12/06 04:02:35;;;;;;;17.50;10.90;;;;;;;-2.96;88.53;96330.35;108787;1263;23465;-79
2023/12/06 04:05:05;;;;;;;18.70;11.00;;;;;;;-2.92;88.69;96331.39;108776;1273;23060;-79
2023/12/06 04:07:36;;;;;;;19.00;10.30;;;;;;;-2.86;88.77;96334.57;108803;1273;22514;-79
2023/12/06 04:10:07;;;;;;;21.20;11.50;;;;;;;-2.82;88.62;96334.89;108773;1273;22583;-79
2023/12/06 04:12:36;;;;;;;19.60;10.50;;;;;;;-2.84;88.61;96338.48;108806;1273;22554;-79
2023/12/06 04:15:06;;;;;;;19.00;11.80;;;;;;;-2.85;88.42;96342.98;108797;1269;23833;-79
2023/12/06 04:17:37;;;;;;;13.40;9.70;;;;;;;-2.87;88.44;96342.39;108783;1269;23833;-80
2023/12/06 04:20:08;;;;;;;20.40;11.40;;;;;;;-2.88;88.55;96344.87;108760;1267;25463;-80
2023/12/06 04:22:37;;;;;;;21.10;13.20;;;;;;;-2.89;88.41;96340.88;108782;1273;22546;-80
2023/12/06 04:25:09;;;;;;;22.10;12.50;;;;;;;-2.92;88.14;96343.24;108751;1273;22561;-80
2023/12/06 04:27:40;;;;;;;21.40;11.90;;;;;;;-3.02;88.18;96343.79;108786;1273;22536;-79
2023/12/06 04:30:11;;;;;;;22.70;13.30;;;;;;;-3.10;88.30;96339.31;108797;1272;24213;-80
2023/12/06 04:32:42;;;;;;;21.00;13.10;;;;;;;-3.15;88.36;96334.24;108803;1273;22518;-79
2023/12/06 04:35:11;;;;;;;23.60;15.00;;;;;;;-3.17;88.41;96335.73;108766;1269;26493;-80
2023/12/06 04:37:40;;;;;;;21.20;13.30;;;;;;;-3.19;88.32;96336.14;108826;1273;25278;-79
2023/12/06 04:40:14;;;;;;;18.90;11.90;;;;;;;-3.18;88.39;96334.80;108753;1273;24003;-79
2023/12/06 04:42:45;;;;;;;19.40;11.20;;;;;;;-3.18;88.40;96336.20;108792;1272;25106;-80
2023/12/06 04:45:13;;;;;;;19.60;11.50;;;;;;;-3.18;88.51;96333.17;108771;1266;22565;-79
2023/12/06 04:47:41;;;;;;;21.30;13.50;;;;;;;-3.18;88.58;96330.98;108800;1269;22518;-79
2023/12/06 04:50:14;;;;;;;20.10;10.80;;;;;;;-3.18;88.39;96332.65;108724;1269;22535;-79
2023/12/06 04:52:45;;;;;;;18.10;11.50;;;;;;;-3.17;88.41;96333.13;108740;1269;22574;-79
2023/12/06 04:55:14;;;;;;;21.40;11.70;;;;;;;-3.17;88.68;96337.89;108793;1267;25529;-79
2023/12/06 04:57:45;;;;;;;20.90;12.10;;;;;;;-3.19;88.41;96337.33;108761;1273;24247;-79
2023/12/06 05:00:18;;;;;;;23.10;12.60;;;;;;;-3.23;88.47;96338.01;108739;1273;22477;-79
2023/12/06 05:02:46;;;;;;;18.20;11.00;;;;;;;-3.27;88.35;96335.73;108792;1274;24246;-80
2023/12/06 05:05:15;;;;;;;22.80;12.40;;;;;;;-3.33;88.42;96335.64;108757;1273;22667;-79
2023/12/06 05:07:43;;;;;;;;;;;;;;;-3.35;88.48;96340.89;108808;1273;25498;-79
2023/12/06 05:10:12;;;;;;;19.80;12.00;;;;;;;-3.34;88.59;96340.45;108732;1262;22600;-80
2023/12/06 05:12:42;;;;;;;16.90;11.00;;;;;;;-3.33;88.55;96343.25;108804;1269;25417;-80
2023/12/06 05:15:12;;;;;;;16.30;10.00;;;;;;;-3.31;88.71;96343.05;108767;1263;22517;-79
2023/12/06 05:17:41;;;;;;;17.70;10.80;;;;;;;-3.27;88.88;96346.27;108801;1271;25220;-79
2023/12/06 05:20:12;;;;;;;16.70;10.00;;;;;;;-3.24;88.77;96345.91;108766;1250;22517;-79
2023/12/06 05:22:40;;;;;;;19.10;11.40;;;;;;;-3.25;88.62;96347.35;108792;1266;22521;-80
2023/12/06 05:25:09;;;;;;;20.80;9.60;;;;;;;-3.33;88.54;96350.75;108792;1272;22707;-79
2023/12/06 05:27:38;;;;;;;21.00;13.50;;;;;;;-3.44;88.33;96346.58;108787;1273;22504;-79
2023/12/06 05:30:10;;;;;;;23.80;14.30;;;;;;;-3.50;88.38;96350.20;108720;1272;24176;-79
2023/12/06 05:32:41;;;;;;;25.60;14.30;;;;;;;-3.56;88.34;96353.83;108834;1273;24027;-79
2023/12/06 05:35:09;;;;;;;24.80;14.80;;;;;;;-3.60;88.22;96353.31;108754;1273;23042;-79
2023/12/06 05:37:38;;;;;;;23.90;14.60;;;;;;;-3.63;88.37;96354.04;108788;1273;22664;-79
2023/12/06 05:40:10;;;;;;;23.40;14.20;;;;;;;-3.66;88.23;96351.30;108738;1273;24353;-79
2023/12/06 05:42:41;;;;;;;26.50;14.70;;;;;;;-3.67;88.50;96353.55;108841;1269;25438;-80
2023/12/06 05:45:12;;;;;;;26.00;15.10;;;;;;;-3.67;88.65;96357.64;108826;1273;23743;-79
2023/12/06 05:47:41;;;;;;;22.20;14.10;;;;;;;-3.65;88.68;96353.08;108788;1273;22532;-79
2023/12/06 05:50:12;;;;;;;20.70;12.50;;;;;;;-3.63;88.61;96355.34;108777;1273;22521;-79
2023/12/06 05:52:41;;;;;;;23.40;14.00;;;;;;;-3.58;88.80;96353.04;108788;1273;22669;-79
2023/12/06 05:55:12;;;;;;;22.00;13.70;;;;;;;-3.54;88.86;96351.24;108793;1272;22517;-79
2023/12/06 05:57:42;;;;;;;24.40;13.80;;;;;;;-3.52;88.87;96352.89;108759;1273;24211;-79
2023/12/06 06:00:13;;;;;;;19.40;12.60;;;;;;;-3.52;88.79;96356.47;108761;1267;22528;-80
2023/12/06 06:02:43;;;;;;;20.10;11.70;;;;;;;-3.53;88.65;96357.62;108838;1273;22514;-79
2023/12/06 06:05:12;;;;;;;22.20;12.60;;;;;;;-3.54;88.63;96362.48;108812;1271;22550;-79
2023/12/06 06:07:41;;;;;;;19.40;12.20;;;;;;;-3.53;88.65;96362.85;108839;1266;22539;-79
2023/12/06 06:10:12;;;;;;;21.10;12.40;;;;;;;-3.50;88.79;96363.52;108751;1274;22539;-79
2023/12/06 06:12:41;;;;;;;18.60;11.30;;;;;;;-3.50;88.84;96365.14;108830;1272;22528;-79
2023/12/06 06:15:13;;;;;;;22.40;12.50;;;;;;;-3.46;88.96;96366.98;108809;1273;22990;-79
2023/12/06 06:17:44;;;;;;;19.20;11.10;;;;;;;-3.43;89.05;96370.73;108809;1273;22539;-79
2023/12/06 06:20:13;;;;;;;18.90;9.50;;;;;;;-3.39;89.10;96374.27;108727;1265;22557;-79
2023/12/06 06:22:43;;;;;;;14.00;7.30;;;;;;;-3.39;88.96;96371.33;108793;1260;22526;-79
2023/12/06 06:25:11;;;;;;;13.20;7.00;;;;;;;-3.36;89.11;96373.23;108782;1274;22535;-79
2023/12/06 06:27:41;;;;;;;13.50;7.70;;;;;;;-3.35;89.07;96374.66;108822;1273;24195;-79
2023/12/06 06:30:11;;;;;;;16.00;8.10;;;;;;;-3.33;89.08;96378.06;108747;1269;23216;-79
2023/12/06 06:32:41;;;;;;;11.90;6.00;;;;;;;-3.30;89.29;96374.66;108763;1273;22516;-79
2023/12/06 06:35:09;;;;;;;18.60;10.70;;;;;;;-3.27;89.31;96378.81;108805;1273;22517;-79
2023/12/06 06:37:38;;;;;;;17.90;9.60;;;;;;;-3.23;89.20;96376.80;108746;1273;22518;-79
2023/12/06 06:40:10;;;;;;;21.30;12.00;;;;;;;-3.21;89.39;96374.73;108756;1272;22546;-79
2023/12/06 06:42:38;;;;;;;14.20;8.30;;;;;;;-3.16;89.38;96380.27;108820;1269;22546;-79
2023/12/06 06:45:10;;;;;;;19.40;10.50;;;;;;;-3.14;89.44;96382.23;108791;1269;24740;-79
2023/12/06 06:47:42;;;;;;;17.30;10.10;;;;;;;-3.13;89.27;96380.75;108743;1272;22618;-79
2023/12/06 06:50:12;;;;;;;13.80;6.50;;;;;;;-3.11;89.32;96384.98;108829;1274;23306;-79
2023/12/06 06:52:43;;;;;;;17.00;8.70;;;;;;;-3.06;89.59;96379.10;108816;1273;22774;-79
2023/12/06 06:55:11;;;;;;;16.70;7.90;;;;;;;-3.04;89.43;96379.86;108759;1272;26628;-79
2023/12/06 06:57:39;;;;;;;15.20;7.00;;;;;;;-3.04;89.38;96377.42;108796;1273;22521;-79
2023/12/06 07:00:12;;;;;;;15.80;9.40;;;;;;;-3.00;89.58;96376.50;108750;1273;24298;-79
2023/12/06 07:02:41;;;;;;;17.50;8.50;;;;;;;-2.94;89.53;96374.56;108801;1267;22519;-79
2023/12/06 07:05:12;;;;;;;17.60;10.60;;;;;;;-2.89;89.61;96375.95;108785;1267;25294;-79
2023/12/06 07:07:41;;;;;;;12.20;7.50;;;;;;;-2.85;89.75;96373.67;108820;1273;22566;-79
2023/12/06 07:10:13;;;;;;;15.10;10.30;;;;;;;-2.81;89.70;96368.14;108765;1273;24272;-79
2023/12/06 07:12:41;;;;;;;14.50;8.60;;;;;;;-2.76;89.75;96366.30;108782;1267;22523;-79
2023/12/06 07:15:14;;;;;;;17.00;10.10;;;;;;;-2.71;89.69;96365.33;108814;1272;22616;-79
2023/12/06 07:17:45;;;;;;;18.00;10.70;;;;;;;-2.66;89.75;96366.98;108768;1265;22508;-79
2023/12/06 07:20:14;;;;;;;15.60;9.30;;;;;;;-2.61;89.69;96357.73;108768;1273;22525;-79
2023/12/06 07:22:47;;;;;;;18.20;10.10;;;;;;;-2.57;89.49;96355.49;108790;1256;22516;-79
2023/12/06 07:25:20;;;;;;;15.20;9.30;;;;;;;-2.54;89.44;96354.46;108773;1257;22571;-79
2023/12/06 07:27:48;;;;;;;16.80;8.90;;;;;;;-2.51;89.50;96348.16;108807;1273;22532;-79
2023/12/06 07:30:17;;;;;;;16.60;10.40;;;;;;;-2.46;89.46;96348.58;108780;1273;22551;-79
2023/12/06 07:32:48;;;;;;;16.50;9.90;;;;;;;-2.43;89.63;96349.09;108787;1273;22564;-79
2023/12/06 07:35:17;;;;;;;18.00;10.90;;;;;;;-2.45;89.21;96352.45;108777;1273;22515;-79
2023/12/06 07:37:47;;;;;;;17.70;9.90;;;;;;;-2.47;89.13;96348.95;108802;1273;22629;-79
2023/12/06 07:40:15;;;;;;;18.60;11.40;;;;;;;-2.47;89.26;96352.59;108752;1273;22533;-79
2023/12/06 07:42:44;;;;;;;17.00;10.60;;;;;;;-2.46;89.24;96351.94;108775;1273;24016;-79
2023/12/06 07:45:13;;;;;;;17.60;11.50;;;;;;;-2.44;89.26;96355.63;108826;1273;22534;-79
2023/12/06 07:47:42;;;;;;;18.50;11.80;;;;;;;-2.40;89.25;96352.73;108773;1272;25083;-79
2023/12/06 07:50:12;;;;;;;18.10;10.70;;;;;;;-2.35;89.23;96352.28;108759;1266;26593;-79
2023/12/06 07:52:40;;;;;;;16.50;10.90;;;;;;;-2.32;89.15;96357.38;108780;1267;22547;-79
2023/12/06 07:55:13;;;;;;;18.30;11.80;;;;;;;-2.28;89.28;96355.45;108787;1269;22527;-79
2023/12/06 07:57:42;;;;;;;18.40;11.80;;;;;;;-2.20;89.29;96353.05;108721;1273;22626;-79
2023/12/06 08:00:14;;;;;;;23.00;12.70;;;;;;;-2.16;89.36;96356.30;108750;1273;22616;-79
2023/12/06 08:02:46;;;;;;;21.00;11.40;;;;;;;-2.15;89.19;96358.77;108773;1273;22517;-79
2023/12/06 08:05:16;;;;;;;19.90;13.20;;;;;;;-2.14;89.20;96359.52;108726;1273;24251;-79
2023/12/06 08:07:47;;;;;;;17.90;11.20;;;;;;;-2.12;89.14;96359.92;108800;1266;22535;-79
2023/12/06 08:10:22;;;;;;;17.30;10.10;;;;;;;-2.06;89.20;96361.44;108771;1273;23764;-79
2023/12/06 08:12:50;;;;;;;16.20;9.10;;;;;;;-2.02;89.09;96361.38;108787;1269;23294;-79
2023/12/06 08:15:21;;;;;;;17.50;11.50;;;;;;;-2.00;89.11;96362.27;108761;1273;22554;-79
2023/12/06 08:17:49;;;;;;;19.20;10.70;;;;;;;-2.04;88.84;96366.94;108759;1273;25365;-79
2023/12/06 08:20:18;;;;;;;20.80;12.20;;;;;;;-2.10;88.55;96371.36;108825;1270;23909;-79
2023/12/06 08:22:46;;;;;;;19.40;11.10;;;;;;;-2.13;88.53;96371.38;108758;1273;22535;-78
2023/12/06 08:25:15;;;;;;;18.90;11.50;;;;;;;-2.12;88.69;96373.51;108774;1273;24203;-78
2023/12/06 08:27:44;;;;;;;16.00;10.20;;;;;;;-2.09;88.36;96376.87;108778;1273;22520;-78
2023/12/06 08:30:16;;;;;;;18.80;10.70;;;;;;;-2.09;88.59;96376.95;108748;1274;22647;-78
2023/12/06 08:32:47;;;;;;;14.10;7.60;;;;;;;-2.09;88.63;96380.94;108800;1273;22526;-78
2023/12/06 08:35:18;;;;;;;11.50;6.30;;;;;;;-2.07;88.84;96388.80;108761;1273;26558;-78
2023/12/06 08:37:49;;;;;;;18.60;10.90;;;;;;;-2.04;88.82;96385.27;108788;1273;22530;-78
2023/12/06 08:40:17;;;;;;;18.30;12.10;;;;;;;-1.98;88.76;96383.70;108806;1273;23826;-78
2023/12/06 08:42:46;;;;;;;11.70;7.80;;;;;;;-1.92;89.06;96381.92;108777;1273;26437;-78
2023/12/06 08:45:16;;;;;;;15.80;9.00;;;;;;;-1.84;88.89;96382.50;108746;1266;25254;-78
2023/12/06 08:47:45;;;;;;;16.60;9.10;;;;;;;-1.78;88.68;96377.36;108782;1256;22516;-78
2023/12/06 08:50:17;;;;;;;15.30;8.30;;;;;;;-1.73;88.81;96380.85;108755;1273;26509;-78
2023/12/06 08:52:48;;;;;;;16.60;9.40;;;;;;;-1.65;88.71;96381.55;108808;1269;22530;-78
2023/12/06 08:55:17;;;;;;;19.60;11.40;;;;;;;-1.60;88.71;96374.77;108777;1273;22488;-78
2023/12/06 08:57:45;;;;;;;16.20;11.20;;;;;;;-1.55;88.78;96370.26;108719;1269;22522;-78
2023/12/06 09:00:16;;;;;;;12.50;8.80;;;;;;;-1.47;88.69;96369.34;108757;1273;22539;-78
2023/12/06 09:02:44;;;;;;;14.50;9.10;;;;;;;-1.42;88.62;96370.74;108834;1273;22906;-78
2023/12/06 09:05:12;;;;;;;16.30;10.30;;;;;;;-1.40;88.39;96372.02;108746;1273;22564;-79
2023/12/06 09:07:43;;;;;;;15.70;9.20;;;;;;;-1.40;88.31;96369.88;108760;1273;23977;-78
2023/12/06 09:10:12;;;;;;;14.20;9.00;;;;;;;-1.41;88.21;96368.26;108742;1273;22534;-78
2023/12/06 09:12:40;;;;;;;14.70;9.20;;;;;;;-1.38;88.41;96364.66;108793;1273;22518;-78
2023/12/06 09:15:12;;;;;;;16.30;9.90;;;;;;;-1.36;88.33;96358.69;108773;1273;22529;-79
2023/12/06 09:17:43;;;;;;;16.80;10.70;;;;;;;-1.33;88.29;96365.26;108774;1272;23673;-78
2023/12/06 09:20:15;;;;;;;15.70;9.80;;;;;;;-1.26;88.39;96364.22;108743;1250;22630;-78
2023/12/06 09:22:44;;;;;;;15.80;8.70;;;;;;;-1.21;88.36;96365.52;108882;1267;22507;-79
2023/12/06 09:25:13;;;;;;;16.10;10.20;;;;;;;-1.17;88.04;96366.48;108779;1273;25452;-79
2023/12/06 09:27:43;;;;;;;16.10;10.10;;;;;;;-1.11;88.34;96363.41;108788;1273;22490;-78
2023/12/06 09:30:13;;;;;;;14.40;9.50;;;;;;;-1.03;88.20;96364.51;108746;1273;22531;-79
2023/12/06 09:32:45;;;;;;;16.80;10.20;;;;;;;-0.97;88.01;96362.07;108849;1273;24812;-79
2023/12/06 09:35:13;;;;;;;15.00;9.50;;;;;;;-0.90;88.00;96355.25;108765;1274;26425;-78
2023/12/06 09:37:43;;;;;;;15.80;9.80;;;;;;;-0.87;88.07;96351.39;108828;1273;25210;-79
2023/12/06 09:40:13;;;;;;;16.00;10.10;;;;;;;-0.85;87.93;96351.44;108723;1274;22567;-78
2023/12/06 09:42:48;;;;;;;15.50;9.50;;;;;;;-0.86;87.83;96351.77;108792;1273;23816;-79
2023/12/06 09:45:19;;;;;;;18.40;10.50;;;;;;;-0.90;87.87;96353.00;108775;1273;22525;-79
2023/12/06 09:47:48;;;;;;;16.90;10.50;;;;;;;-0.92;87.71;96357.39;108788;1273;25527;-79
2023/12/06 09:50:19;;;;;;;20.30;12.10;;;;;;;-0.90;87.70;96358.42;108871;1270;25404;-79
2023/12/06 09:52:52;;;;;;;22.30;12.10;;;;;;;-0.88;88.01;96353.43;108744;1273;22537;-79
2023/12/06 09:55:24;;;;;;;24.90;13.80;;;;;;;-0.82;87.93;96349.91;108734;1273;22508;-79
2023/12/06 09:57:53;;;;;;;22.50;12.80;;;;;;;-0.75;87.96;96350.41;108745;1273;22531;-79
2023/12/06 10:00:23;;;;;;;22.00;13.90;;;;;;;-0.75;88.10;96351.73;108870;1270;22635;-79
2023/12/06 10:02:53;;;;;;;22.00;13.30;;;;;;;-0.74;88.04;96353.79;108782;1273;22546;-79
2023/12/06 10:05:22;;;;;;;23.90;14.80;;;;;;;-0.67;88.18;96354.39;108796;1272;22528;-79
2023/12/06 10:07:50;;;;;;;22.60;14.60;;;;;;;-0.59;88.35;96352.67;108788;1273;22547;-79
2023/12/06 10:10:19;;;;;;;23.60;14.00;;;;;;;-0.52;88.31;96354.22;108713;1274;23985;-79
2023/12/06 10:12:48;;;;;;;;;;;;;;;-0.49;88.14;96355.99;108766;1273;22496;-79
2023/12/06 10:15:17;;;;;;;38.30;23.80;;;;;;;-0.55;88.09;96350.73;108770;1273;25410;-79
2023/12/06 10:17:46;;;;;;;44.70;28.20;;;;;;;-0.64;87.51;96350.05;108815;1269;25095;-79
2023/12/06 10:20:15;;;;;;;45.60;29.60;;;;;;;-0.73;87.43;96348.74;108732;1270;26465;-79
2023/12/06 10:22:47;;;;;;;47.10;30.10;;;;;;;-0.76;87.67;96346.53;108755;1273;24180;-79
2023/12/06 10:25:24;;;;;;;51.80;32.00;;;;;;;-0.84;87.38;96343.11;108775;1273;22627;-79
2023/12/06 10:27:53;;;;;;;57.70;36.80;;;;;;;-0.97;87.33;96345.66;108767;1270;23765;-79
2023/12/06 10:30:22;;;;;;;56.80;35.40;;;;;;;-1.05;87.16;96343.64;108758;1270;25358;-79
2023/12/06 10:32:53;;;;;;;62.60;37.30;;;;;;;-1.15;87.10;96348.15;108787;1266;26036;-79
2023/12/06 10:35:26;;;;;;;59.00;35.50;;;;;;;-1.22;87.34;96348.92;108758;1273;22535;-79
2023/12/06 10:37:58;;;;;;;59.70;38.50;;;;;;;-1.22;87.42;96349.44;108791;1255;22531;-79
2023/12/06 10:40:28;;;;;;;66.10;40.20;;;;;;;-1.23;87.45;96347.77;108814;1270;22544;-79
2023/12/06 10:43:03;;;;;;;56.50;36.00;;;;;;;-1.21;87.59;96344.98;108791;1271;24264;-79
2023/12/06 10:45:33;;;;;;;55.00;34.10;;;;;;;-1.16;87.78;96342.95;108764;1272;22512;-79
2023/12/06 10:48:05;;;;;;;50.30;32.20;;;;;;;-1.15;87.41;96344.33;108751;1272;24234;-79
2023/12/06 10:50:35;;;;;;;55.10;34.10;;;;;;;-1.21;87.35;96343.42;108727;1273;26799;-79
2023/12/06 10:53:04;;;;;;;55.50;34.40;;;;;;;-1.28;87.12;96343.83;108804;1273;22854;-79
2023/12/06 10:55:34;;;;;;;53.60;35.20;;;;;;;-1.32;87.22;96342.98;108805;1273;22531;-80
2023/12/06 10:58:06;;;;;;;60.80;37.70;;;;;;;-1.29;87.52;96336.72;108791;1267;23844;-79
2023/12/06 11:00:35;;;;;;;55.00;35.20;;;;;;;-1.20;87.95;96327.65;108763;1273;22540;-79
2023/12/06 11:03:03;;;;;;;57.40;35.60;;;;;;;-1.07;88.07;96325.02;108777;1270;23166;-79
2023/12/06 11:05:38;;;;;;;41.70;25.60;;;;;;;-0.97;88.08;96319.36;108779;1273;22520;-80
2023/12/06 11:08:45;;;;;;;58.20;35.40;;;;;;;-0.97;87.59;96319.36;108749;1273;22546;-79
2023/12/06 11:11:36;;;;;;;58.20;34.10;;;;;;;-1.08;87.28;96321.89;108680;1273;22613;-80
2023/12/06 11:14:20;;;;;;;59.90;35.50;;;;;;;-1.23;87.30;96323.36;108765;1273;22528;-80
2023/12/06 11:17:04;;;;;;;60.00;37.30;;;;;;;-1.29;87.38;96325.19;108845;1273;22535;-80
2023/12/06 11:19:35;;;;;;;60.60;38.10;;;;;;;-1.28;87.70;96328.51;108774;1273;26443;-79
2023/12/06 11:22:04;;;;;;;58.50;38.10;;;;;;;-1.24;87.51;96331.93;108839;1273;25307;-80
2023/12/06 11:24:36;;;;;;;62.40;37.70;;;;;;;-1.18;87.73;96331.56;108815;1270;22597;-80